Portada
METAR-TAF:

METAR-TAF

Aeroports :

Sint Maarten, Antilles Neerlandeses

latitud: 18-03N, longitud: 063-07W, altitud: 4 m

Observació

L'informe es va fer fa 1 hora i 1 minuts, a les 02:00 UTC
Vent 10 kt del Est, variant entre Est/Nord-Est i Sud-Est
Temperatura 29°C
Humitat 70%
Pressió 1018 hPa
Visibilitat 10 km o més
Núvols disperses a una alçada de 1800 ft

METAR: TNCM 200200Z 10010KT 060V140 9999 SCT018 29/23 Q1018 RMK A3007, LGT HZ

Hora: 23:01 (03:01 UTC)

Pronòstic

L'informe es va fer fa 3 hores i 26 minuts, a les 23:35 UTC
Pronòstic vàlid del 20 a les 00 UTC al 20 a les 24 UTC
Vent 10 kt del Est
Visibilitat: 10 km
Núvols disperses a una alçada de 1800 ft
A partir de les 20 a les 1300 UTC
Vent 15 kt del Est/Sud-Est
Visibilitat: 10 km
Escasses núvols a una alçada de 2000 ft
A partir de les 20 a les 2300 UTC
Vent 10 kt del Est
Visibilitat: 10 km
Escasses núvols a una alçada de 1800 ft

TAF: TNCM 192335Z 2000/2024 09010KT P6SM SCT018 FM201300 11015KT P6SM FEW020 FM202300 09010KT P6SM FEW018

Observacions i pronòstics meteorològics de més de 4000 aeroports (METAR i TAF).

Les estacions disponibles són els punts grocs i vermells al mapa.

Posi el ratolí al punt desitjat per veure el nom de l'estació.

Feu clic per veure les observacions i els pronòstics meteorològics.

Per canviar el mapa: feu clic els botons verds amb una creu de color negre per apropar; al botó verd amb un guió per allunyar la imatge; o en les fletxes verdes per a mapes adjacents.


METAR-TAF: